Granton, Wisconsin
Current Conditions -  °F | °C
As of 11:54 PM on Friday 19 Dec 2014 (Local Time) from KMFI Reporting Station
Overcast Overcast  
Wind Chill: 15°   Ceiling: 2400
Heat Index: 24°   Visibility: 8mi
Dew Point: 20°   Wind: 8mph
Humidity: 84%   Direction: 170°S
Pressure: 30.21"   Gusts: NA
Location:  44.59°N, 90.46°W
Report Text: KMFI 200554Z AUTO 17007KT 8SM OVC024 M04/M07 A3021 RMK AO2 SLP253 T10441067 11044 21050 410441050 50001
Loading
Personal Weather Stations






























Interactive Weather Map New forecast layout! Learn more

10-Day Weather Forecast

Advertisements
Track Severe Weather on mobile